createdAt,value
2022-12-03T00:02:31.543Z,97.90
2022-12-03T00:05:17.436Z,98.00
2022-12-03T00:08:03.773Z,97.90
2022-12-03T00:10:49.631Z,97.80
2022-12-03T00:13:35.532Z,97.90
2022-12-03T00:16:21.690Z,97.90
2022-12-03T00:19:07.790Z,97.80
2022-12-03T00:21:53.762Z,98.10
2022-12-03T00:24:39.848Z,97.90
2022-12-03T00:27:25.761Z,97.90
2022-12-03T00:30:12.260Z,97.90
2022-12-03T00:32:58.297Z,97.70
2022-12-03T00:35:44.168Z,97.70
2022-12-03T00:38:30.312Z,97.40
2022-12-03T00:41:16.620Z,97.70
2022-12-03T00:44:02.427Z,97.70
2022-12-03T00:46:48.554Z,97.70
2022-12-03T00:49:34.522Z,97.70
2022-12-03T00:52:20.844Z,97.80
2022-12-03T00:55:08.275Z,97.30
2022-12-03T00:57:53.954Z,97.50
2022-12-03T01:00:39.881Z,97.50
2022-12-03T01:03:26.183Z,97.70
2022-12-03T01:06:11.858Z,97.40
2022-12-03T01:08:57.888Z,97.80
2022-12-03T01:11:43.928Z,97.70
2022-12-03T01:14:29.826Z,97.70
2022-12-03T01:17:15.951Z,97.70
2022-12-03T01:20:02.100Z,97.70
2022-12-03T01:22:47.795Z,97.60
2022-12-03T01:25:33.956Z,97.80
2022-12-03T01:28:19.896Z,97.90
2022-12-03T01:31:24.644Z,97.60
2022-12-03T01:34:10.464Z,97.50
2022-12-03T01:36:56.777Z,97.70
2022-12-03T01:39:43.319Z,97.70
2022-12-03T01:42:31.356Z,97.80
2022-12-03T01:45:23.791Z,97.80
2022-12-03T01:48:13.514Z,97.90
2022-12-03T01:51:00.104Z,97.70
2022-12-03T01:53:46.232Z,98.10
2022-12-03T01:56:32.199Z,98.10
2022-12-03T01:59:19.800Z,97.90
2022-12-03T02:02:12.067Z,97.80
2022-12-03T02:04:58.531Z,97.70
2022-12-03T02:07:44.622Z,98.00
2022-12-03T02:10:32.418Z,97.80
2022-12-03T02:13:18.498Z,97.70
2022-12-03T02:16:04.845Z,97.60
2022-12-03T02:18:50.936Z,97.70
2022-12-03T02:21:39.953Z,97.80
2022-12-03T02:24:32.319Z,97.90
2022-12-03T02:27:18.428Z,98.00
2022-12-03T02:30:05.644Z,97.90
2022-12-03T02:32:51.817Z,97.60
2022-12-03T02:35:38.436Z,97.50
2022-12-03T02:38:25.826Z,97.40
2022-12-03T02:41:37.076Z,97.30
2022-12-03T02:44:23.103Z,97.80
2022-12-03T02:47:09.216Z,97.80
2022-12-03T02:49:55.343Z,97.90
2022-12-03T02:52:43.733Z,97.70
2022-12-03T02:55:36.354Z,97.70
2022-12-03T02:58:23.949Z,97.40
2022-12-03T03:01:10.630Z,97.40
2022-12-03T03:03:56.922Z,97.50
2022-12-03T03:06:42.929Z,97.60
2022-12-03T03:09:28.803Z,97.60
2022-12-03T03:12:14.702Z,97.70
2022-12-03T03:15:01.044Z,97.40
2022-12-03T03:17:46.849Z,97.30
2022-12-03T03:20:33.878Z,97.20
2022-12-03T03:23:21.395Z,97.00
2022-12-03T03:26:08.814Z,97.30
2022-12-03T03:28:54.855Z,97.10
2022-12-03T03:31:42.131Z,97.30
2022-12-03T03:34:28.854Z,97.20
2022-12-03T03:37:14.558Z,97.00
2022-12-03T03:40:00.651Z,97.00
2022-12-03T03:42:46.989Z,97.50
2022-12-03T03:45:32.906Z,97.30
2022-12-03T03:48:19.204Z,97.10
2022-12-03T03:51:08.902Z,97.40
2022-12-03T03:53:55.148Z,97.40
2022-12-03T03:56:41.159Z,97.20
2022-12-03T03:59:28.443Z,97.30
2022-12-03T04:02:19.451Z,97.20
2022-12-03T04:05:05.748Z,97.00
2022-12-03T04:07:52.138Z,96.90
2022-12-03T04:10:57.009Z,97.00
2022-12-03T04:13:42.749Z,96.90
2022-12-03T04:16:29.314Z,97.00
2022-12-03T04:19:15.369Z,97.30
2022-12-03T04:22:20.096Z,97.10
2022-12-03T04:25:25.050Z,97.00
2022-12-03T04:28:31.056Z,97.20
2022-12-03T04:31:37.054Z,96.70
2022-12-03T04:34:41.632Z,96.80
2022-12-03T04:37:27.504Z,97.00
2022-12-03T04:40:48.976Z,97.10
2022-12-03T04:43:55.059Z,97.10
2022-12-03T04:46:40.778Z,97.10
2022-12-03T04:49:26.836Z,97.40
2022-12-03T04:52:14.088Z,97.50
2022-12-03T04:54:59.933Z,97.40
2022-12-03T04:57:45.966Z,97.40
2022-12-03T05:00:32.064Z,97.20
2022-12-03T05:03:18.153Z,97.40
2022-12-03T05:06:04.052Z,97.30
2022-12-03T05:08:50.071Z,97.50
2022-12-03T05:11:36.218Z,97.60
2022-12-03T05:14:21.882Z,97.60
2022-12-03T05:17:07.854Z,97.40
2022-12-03T05:20:12.558Z,97.40
2022-12-03T05:22:58.224Z,97.50
2022-12-03T05:25:44.164Z,97.30
2022-12-03T05:28:30.543Z,97.20
2022-12-03T05:31:16.903Z,97.30
2022-12-03T05:34:02.895Z,97.50
2022-12-03T05:36:48.845Z,97.40
2022-12-03T05:39:34.771Z,97.40
2022-12-03T05:42:39.629Z,97.30
2022-12-03T05:45:27.558Z,97.40
2022-12-03T05:48:14.763Z,96.80
2022-12-03T05:51:00.742Z,97.00
2022-12-03T05:53:46.784Z,97.30
2022-12-03T05:56:32.868Z,97.40
2022-12-03T05:59:18.707Z,97.50
2022-12-03T06:02:04.788Z,97.30
2022-12-03T06:04:51.044Z,97.20
2022-12-03T06:07:37.750Z,97.10
2022-12-03T06:10:24.447Z,97.10
2022-12-03T06:13:10.264Z,97.40
2022-12-03T06:15:56.382Z,97.50
2022-12-03T06:18:42.353Z,97.40
2022-12-03T06:21:28.384Z,97.30
2022-12-03T06:24:14.493Z,97.40
2022-12-03T06:27:00.413Z,97.20
2022-12-03T06:29:46.494Z,97.10
2022-12-03T06:32:32.596Z,97.10
2022-12-03T06:35:18.416Z,97.10
2022-12-03T06:38:04.741Z,96.80
2022-12-03T06:40:50.445Z,97.00
2022-12-03T06:43:36.300Z,97.30
2022-12-03T06:46:22.405Z,97.10
2022-12-03T06:49:11.388Z,97.30
2022-12-03T06:51:57.427Z,97.40
2022-12-03T06:54:43.651Z,97.20
2022-12-03T06:57:29.672Z,97.30
2022-12-03T07:00:15.643Z,96.90
2022-12-03T07:03:01.572Z,97.20
2022-12-03T07:05:47.489Z,97.10
2022-12-03T07:08:33.757Z,96.90
2022-12-03T07:11:31.952Z,96.80
2022-12-03T07:14:17.900Z,96.70
2022-12-03T07:17:03.826Z,96.60
2022-12-03T07:19:49.701Z,96.50
2022-12-03T07:22:35.679Z,96.70
2022-12-03T07:25:23.774Z,96.80
2022-12-03T07:28:09.568Z,96.90
2022-12-03T07:30:55.603Z,96.90
2022-12-03T07:33:41.587Z,96.80
2022-12-03T07:36:27.442Z,96.50
2022-12-03T07:39:13.827Z,96.60
2022-12-03T07:41:59.696Z,96.70
2022-12-03T07:44:45.810Z,96.40
2022-12-03T07:47:31.867Z,96.60
2022-12-03T07:50:17.623Z,96.80
2022-12-03T07:53:03.564Z,96.90
2022-12-03T07:55:49.531Z,96.60
2022-12-03T07:58:35.628Z,96.80
2022-12-03T08:01:22.034Z,97.10
2022-12-03T08:04:07.919Z,97.00
2022-12-03T08:06:54.053Z,97.20
2022-12-03T08:09:40.926Z,96.90
2022-12-03T08:12:42.944Z,97.00
2022-12-03T08:15:35.248Z,97.00
2022-12-03T08:18:24.674Z,96.80
2022-12-03T08:21:11.515Z,96.50
2022-12-03T08:23:57.356Z,96.30
2022-12-03T08:26:46.646Z,96.30
2022-12-03T08:29:32.664Z,96.00
2022-12-03T08:32:18.582Z,96.20
2022-12-03T08:35:12.303Z,96.00
2022-12-03T08:38:01.427Z,96.10
2022-12-03T08:40:49.315Z,96.20
2022-12-03T08:43:41.886Z,96.00
2022-12-03T08:46:27.997Z,96.40
2022-12-03T08:49:14.246Z,96.60
2022-12-03T08:52:01.143Z,96.50
2022-12-03T08:54:51.568Z,96.60
2022-12-03T08:57:37.699Z,96.40
2022-12-03T09:00:24.515Z,96.70
2022-12-03T09:03:15.792Z,96.60
2022-12-03T09:06:01.864Z,96.30
2022-12-03T09:08:49.777Z,96.30
2022-12-03T09:11:35.493Z,96.20
2022-12-03T09:14:22.797Z,96.50
2022-12-03T09:17:09.093Z,96.30
2022-12-03T09:19:55.012Z,96.40
2022-12-03T09:22:41.094Z,96.50
2022-12-03T09:25:27.357Z,96.40
2022-12-03T09:28:13.270Z,96.40
2022-12-03T09:30:59.373Z,96.60
2022-12-03T09:33:45.317Z,96.40
2022-12-03T09:36:31.449Z,96.20
2022-12-03T09:39:17.554Z,96.20
2022-12-03T09:42:03.616Z,96.20
2022-12-03T09:44:49.431Z,96.40
2022-12-03T09:47:35.401Z,96.40
2022-12-03T09:50:26.366Z,96.50
2022-12-03T09:53:14.451Z,96.80
2022-12-03T09:56:00.602Z,96.90
2022-12-03T09:58:46.799Z,97.00
2022-12-03T10:01:32.545Z,96.40
2022-12-03T10:04:19.233Z,96.40
2022-12-03T10:07:05.113Z,96.40
2022-12-03T10:09:51.700Z,97.00
2022-12-03T10:12:37.742Z,96.80
2022-12-03T10:15:23.846Z,96.50
2022-12-03T10:18:20.341Z,96.40
2022-12-03T10:21:12.609Z,96.20
2022-12-03T10:24:17.477Z,96.40
2022-12-03T10:27:04.908Z,96.60
2022-12-03T10:29:56.092Z,96.50
2022-12-03T10:32:48.184Z,96.60
2022-12-03T10:35:41.208Z,96.80
2022-12-03T10:38:27.178Z,96.80
2022-12-03T10:41:26.984Z,96.40
2022-12-03T10:44:20.577Z,96.40
2022-12-03T10:47:08.104Z,96.30
2022-12-03T10:50:01.568Z,96.10
2022-12-03T10:52:47.293Z,96.10
2022-12-03T10:55:35.788Z,96.10
2022-12-03T10:58:23.130Z,96.00
2022-12-03T11:01:19.803Z,96.10
2022-12-03T11:04:05.956Z,96.00
2022-12-03T11:06:52.199Z,96.10
2022-12-03T11:09:38.281Z,96.00
2022-12-03T11:12:26.228Z,96.00
2022-12-03T11:15:16.241Z,96.00
2022-12-03T11:18:02.170Z,96.00
2022-12-03T11:20:48.148Z,96.00
2022-12-03T11:23:46.334Z,96.00
2022-12-03T11:26:32.373Z,95.80
2022-12-03T11:29:38.287Z,96.10
2022-12-03T11:32:39.686Z,96.30
2022-12-03T11:35:25.491Z,96.00
2022-12-03T11:38:46.189Z,96.00
2022-12-03T11:41:36.488Z,96.10
2022-12-03T11:44:30.422Z,95.70
2022-12-03T11:47:16.316Z,95.70
2022-12-03T11:50:02.711Z,95.90
2022-12-03T11:53:14.064Z,96.10
2022-12-03T11:56:10.946Z,96.20
2022-12-03T11:58:58.043Z,96.20
2022-12-03T12:01:44.791Z,96.10
2022-12-03T12:04:37.955Z,96.40
2022-12-03T12:07:36.933Z,96.10
2022-12-03T12:10:38.299Z,96.10
2022-12-03T12:13:30.282Z,96.20
2022-12-03T12:16:36.018Z,96.30
2022-12-03T12:19:27.962Z,96.00
2022-12-03T12:22:20.100Z,96.30
2022-12-03T12:25:25.920Z,96.10
2022-12-03T12:28:11.810Z,95.80
2022-12-03T12:30:57.934Z,95.70
2022-12-03T12:33:43.977Z,96.20
2022-12-03T12:36:30.100Z,96.10
2022-12-03T12:39:16.375Z,96.50
2022-12-03T12:42:02.935Z,96.30
2022-12-03T12:44:49.842Z,96.00
2022-12-03T12:47:36.259Z,96.40
2022-12-03T12:50:22.058Z,96.00
2022-12-03T12:53:12.227Z,96.20
2022-12-03T12:56:11.709Z,96.10
2022-12-03T12:59:10.557Z,96.30
2022-12-03T13:01:56.442Z,96.40
2022-12-03T13:04:42.268Z,96.20
2022-12-03T13:07:28.320Z,96.70
2022-12-03T13:10:26.412Z,96.50
2022-12-03T13:13:18.846Z,96.20
2022-12-03T13:16:06.512Z,96.20
2022-12-03T13:18:56.671Z,96.30
2022-12-03T13:21:44.069Z,96.20
2022-12-03T13:24:30.012Z,96.10
2022-12-03T13:27:16.145Z,96.00
2022-12-03T13:30:05.042Z,96.30
2022-12-03T13:32:51.173Z,96.40
2022-12-03T13:35:39.600Z,96.60
2022-12-03T13:38:25.872Z,96.60
2022-12-03T13:41:36.108Z,96.40
2022-12-03T13:44:22.004Z,96.40
2022-12-03T13:47:15.759Z,96.60
2022-12-03T13:50:05.175Z,96.50
2022-12-03T13:52:52.844Z,96.50
2022-12-03T13:55:39.556Z,96.40
2022-12-03T13:58:25.552Z,96.50
2022-12-03T14:01:11.656Z,96.40
2022-12-03T14:03:57.623Z,95.90
2022-12-03T14:06:43.793Z,96.00
2022-12-03T14:09:29.744Z,96.10
2022-12-03T14:12:30.189Z,96.00
2022-12-03T14:15:16.364Z,96.00
2022-12-03T14:18:02.419Z,96.10
2022-12-03T14:20:48.427Z,96.40
2022-12-03T14:23:34.424Z,96.90
2022-12-03T14:26:20.595Z,97.00
2022-12-03T14:29:08.854Z,97.00
2022-12-03T14:31:55.129Z,96.90
2022-12-03T14:34:41.062Z,97.10
2022-12-03T14:37:27.170Z,96.90
2022-12-03T14:40:17.917Z,97.10
2022-12-03T14:43:07.149Z,97.10
2022-12-03T14:45:53.182Z,96.80
2022-12-03T14:48:40.137Z,96.80
2022-12-03T14:51:26.194Z,97.00
2022-12-03T14:54:12.137Z,96.90
2022-12-03T14:56:58.401Z,96.90
2022-12-03T14:59:44.602Z,97.20
2022-12-03T15:02:30.910Z,97.20
2022-12-03T15:05:16.974Z,97.30
2022-12-03T15:08:02.795Z,97.40
2022-12-03T15:10:48.797Z,97.10
2022-12-03T15:13:34.753Z,97.20
2022-12-03T15:16:20.908Z,97.10
2022-12-03T15:19:07.086Z,97.40
2022-12-03T15:21:52.804Z,97.30
2022-12-03T15:24:38.859Z,97.30
2022-12-03T15:27:24.924Z,97.30
2022-12-03T15:30:10.728Z,97.20
2022-12-03T15:32:58.720Z,97.10
2022-12-03T15:35:44.840Z,97.20
2022-12-03T15:38:30.493Z,97.30
2022-12-03T15:41:28.925Z,97.40
2022-12-03T15:44:14.652Z,97.70
2022-12-03T15:47:00.708Z,97.50
2022-12-03T15:49:48.299Z,97.70
2022-12-03T15:52:34.156Z,97.70
2022-12-03T15:55:20.232Z,97.60
2022-12-03T15:58:06.158Z,98.00
2022-12-03T16:00:52.236Z,97.50
2022-12-03T16:03:38.359Z,97.70
2022-12-03T16:06:24.377Z,97.70
2022-12-03T16:09:10.564Z,97.50
2022-12-03T16:11:56.331Z,97.80
2022-12-03T16:14:42.510Z,97.70
2022-12-03T16:17:28.487Z,97.60
2022-12-03T16:20:14.533Z,97.60
2022-12-03T16:23:00.558Z,97.60
2022-12-03T16:25:46.664Z,97.60
2022-12-03T16:28:32.415Z,97.40
2022-12-03T16:31:21.669Z,97.40
2022-12-03T16:34:07.778Z,97.50
2022-12-03T16:36:53.662Z,97.50
2022-12-03T16:39:39.711Z,97.30
2022-12-03T16:42:27.408Z,97.30
2022-12-03T16:45:33.031Z,97.30
2022-12-03T16:48:18.932Z,97.20
2022-12-03T16:51:04.809Z,97.50
2022-12-03T16:54:06.542Z,97.40
2022-12-03T16:56:52.528Z,97.30
2022-12-03T16:59:38.703Z,97.50
2022-12-03T17:02:24.777Z,97.40
2022-12-03T17:05:10.834Z,97.60
2022-12-03T17:07:57.085Z,97.80
2022-12-03T17:10:43.496Z,97.80
2022-12-03T17:13:29.456Z,97.50
2022-12-03T17:16:15.637Z,97.50
2022-12-03T17:19:01.757Z,97.80
2022-12-03T17:21:47.748Z,97.50
2022-12-03T17:24:33.717Z,97.60
2022-12-03T17:27:19.792Z,97.50
2022-12-03T17:30:07.091Z,97.60
2022-12-03T17:32:52.678Z,97.40
2022-12-03T17:35:38.774Z,97.50
2022-12-03T17:38:24.903Z,97.50
2022-12-03T17:41:10.931Z,97.40
2022-12-03T17:43:57.066Z,97.40
2022-12-03T17:46:43.092Z,97.30
2022-12-03T17:49:31.745Z,97.50
2022-12-03T17:52:17.727Z,97.80
2022-12-03T17:55:17.603Z,98.00
2022-12-03T17:58:09.532Z,97.80
2022-12-03T18:01:00.463Z,97.70
2022-12-03T18:03:48.538Z,97.40
2022-12-03T18:06:34.491Z,97.50
2022-12-03T18:09:20.465Z,97.50
2022-12-03T18:12:06.661Z,97.40
2022-12-03T18:14:52.386Z,97.40
2022-12-03T18:17:38.272Z,97.70
2022-12-03T18:20:24.427Z,97.70
2022-12-03T18:23:10.424Z,97.70
2022-12-03T18:25:56.877Z,97.50
2022-12-03T18:28:43.035Z,97.10
2022-12-03T18:31:29.147Z,97.60
2022-12-03T18:34:14.914Z,97.60
2022-12-03T18:37:01.064Z,97.40
2022-12-03T18:39:47.367Z,97.40
2022-12-03T18:42:33.350Z,97.50
2022-12-03T18:45:19.411Z,97.50
2022-12-03T18:48:23.504Z,97.60
2022-12-03T18:51:20.328Z,97.60
2022-12-03T18:54:10.699Z,97.60
2022-12-03T18:56:57.561Z,97.70
2022-12-03T18:59:43.643Z,97.80
2022-12-03T19:03:01.051Z,97.70
2022-12-03T19:05:35.356Z,97.70
2022-12-03T19:08:21.227Z,97.50
2022-12-03T19:11:07.290Z,97.70
2022-12-03T19:13:53.156Z,97.60
2022-12-03T19:16:40.503Z,97.50
2022-12-03T19:19:27.341Z,97.50
2022-12-03T19:22:13.144Z,97.70
2022-12-03T19:24:58.805Z,97.40
2022-12-03T19:27:44.835Z,97.40
2022-12-03T19:30:30.965Z,97.40
2022-12-03T19:33:18.280Z,97.50
2022-12-03T19:36:05.947Z,97.60
2022-12-03T19:38:56.958Z,97.80
2022-12-03T19:41:44.619Z,97.70
2022-12-03T19:44:30.516Z,97.70
2022-12-03T19:47:16.571Z,97.60
2022-12-03T19:50:02.714Z,97.60
2022-12-03T19:52:48.757Z,97.40
2022-12-03T19:55:34.834Z,97.30
2022-12-03T19:58:21.348Z,97.60
2022-12-03T20:01:09.459Z,97.50
2022-12-03T20:03:55.817Z,97.70
2022-12-03T20:06:41.623Z,97.70
2022-12-03T20:09:27.790Z,97.50
2022-12-03T20:12:13.606Z,97.80
2022-12-03T20:14:59.679Z,97.60
2022-12-03T20:17:45.652Z,97.50
2022-12-03T20:20:31.628Z,97.70
2022-12-03T20:23:17.999Z,97.70
2022-12-03T20:26:08.205Z,97.90
2022-12-03T20:28:54.964Z,97.90
2022-12-03T20:31:41.044Z,97.90
2022-12-03T20:34:26.968Z,97.70
2022-12-03T20:37:12.795Z,97.90
2022-12-03T20:39:58.979Z,97.80
2022-12-03T20:42:46.872Z,97.80
2022-12-03T20:45:32.534Z,97.90
2022-12-03T20:48:18.698Z,97.70
2022-12-03T20:51:05.304Z,97.80
2022-12-03T20:53:51.808Z,97.80
2022-12-03T20:56:41.999Z,97.70
2022-12-03T20:59:27.942Z,97.70
2022-12-03T21:02:13.687Z,97.80
2022-12-03T21:04:59.528Z,97.90
2022-12-03T21:07:47.792Z,97.90
2022-12-03T21:10:36.269Z,97.80
2022-12-03T21:13:22.284Z,97.80
2022-12-03T21:16:09.909Z,97.60
2022-12-03T21:18:56.032Z,97.90
2022-12-03T21:21:42.337Z,97.70
2022-12-03T21:24:28.137Z,97.80
2022-12-03T21:27:18.464Z,97.50
2022-12-03T21:30:07.759Z,97.20
2022-12-03T21:32:53.506Z,97.30
2022-12-03T21:35:39.604Z,97.20
2022-12-03T21:38:26.331Z,97.30
2022-12-03T21:41:12.510Z,97.70
2022-12-03T21:43:58.512Z,97.40
2022-12-03T21:47:12.137Z,97.70
2022-12-03T21:49:49.838Z,97.60
2022-12-03T21:52:35.988Z,97.90
2022-12-03T21:55:21.914Z,97.90
2022-12-03T21:58:08.616Z,97.90
2022-12-03T22:00:54.479Z,97.90
2022-12-03T22:03:40.444Z,97.80
2022-12-03T22:06:26.419Z,97.70
2022-12-03T22:09:12.523Z,97.70
2022-12-03T22:12:00.673Z,97.70
2022-12-03T22:14:46.439Z,97.60
2022-12-03T22:17:34.709Z,97.80
2022-12-03T22:20:20.435Z,97.60
2022-12-03T22:23:06.506Z,97.40
2022-12-03T22:25:59.871Z,97.50
2022-12-03T22:28:46.774Z,97.20
2022-12-03T22:31:32.622Z,97.20
2022-12-03T22:34:18.825Z,97.20
2022-12-03T22:37:05.072Z,97.30
2022-12-03T22:39:51.059Z,97.30
2022-12-03T22:42:37.086Z,97.40
2022-12-03T22:45:23.148Z,97.40
2022-12-03T22:48:09.119Z,97.50
2022-12-03T22:50:55.128Z,97.40
2022-12-03T22:53:40.845Z,97.40
2022-12-03T22:56:27.635Z,97.30
2022-12-03T22:59:13.704Z,97.10
2022-12-03T23:01:59.476Z,97.00
2022-12-03T23:04:45.536Z,97.20
2022-12-03T23:07:31.506Z,97.40
2022-12-03T23:10:18.043Z,97.30
2022-12-03T23:13:04.620Z,97.30
2022-12-03T23:15:51.706Z,97.30
2022-12-03T23:18:37.561Z,97.40
2022-12-03T23:21:29.314Z,97.30
2022-12-03T23:24:15.778Z,97.30
2022-12-03T23:27:01.609Z,97.50
2022-12-03T23:29:47.601Z,97.40
2022-12-03T23:32:34.341Z,97.20
2022-12-03T23:35:20.138Z,97.60
2022-12-03T23:38:06.137Z,97.50
2022-12-03T23:40:52.968Z,97.60
2022-12-03T23:43:39.043Z,97.30
2022-12-03T23:46:25.622Z,97.30
2022-12-03T23:49:11.441Z,97.40
2022-12-03T23:51:57.555Z,97.40
2022-12-03T23:54:43.643Z,97.40
2022-12-03T23:57:29.478Z,97.20
